createdAt,value
2023-01-24T00:01:27.082Z,77.89
2023-01-24T00:06:47.751Z,77.68
2023-01-24T00:12:08.316Z,77.86
2023-01-24T00:17:28.990Z,77.76
2023-01-24T00:22:49.739Z,78.02
2023-01-24T00:28:10.437Z,77.61
2023-01-24T00:33:31.412Z,77.60
2023-01-24T00:38:53.759Z,77.56
2023-01-24T00:44:14.740Z,77.55
2023-01-24T00:49:35.619Z,77.65
2023-01-24T00:54:56.870Z,77.66
2023-01-24T01:00:17.942Z,77.46
2023-01-24T01:05:38.896Z,77.43
2023-01-24T01:11:00.528Z,77.25
2023-01-24T01:16:21.639Z,77.20
2023-01-24T01:21:45.467Z,77.67
2023-01-24T01:27:06.410Z,77.35
2023-01-24T01:32:27.161Z,77.08
2023-01-24T01:37:47.909Z,77.79
2023-01-24T01:43:15.605Z,77.51
2023-01-24T01:48:40.542Z,77.49
2023-01-24T01:54:06.873Z,77.58
2023-01-24T01:59:31.580Z,77.91
2023-01-24T02:05:06.061Z,77.37
2023-01-24T02:10:48.955Z,77.28
2023-01-24T02:16:11.816Z,77.23
2023-01-24T02:21:33.739Z,77.52
2023-01-24T02:26:54.911Z,77.26
2023-01-24T02:32:17.499Z,77.81
2023-01-24T02:37:38.620Z,77.95
2023-01-24T02:43:02.231Z,77.78
2023-01-24T02:48:22.884Z,77.68
2023-01-24T02:53:43.668Z,77.53
2023-01-24T02:59:04.319Z,77.51
2023-01-24T03:04:27.210Z,77.53
2023-01-24T03:09:47.915Z,77.83
2023-01-24T03:15:32.867Z,78.01
2023-01-24T03:21:12.111Z,77.66
2023-01-24T03:26:51.621Z,77.52
2023-01-24T03:32:33.383Z,78.19
2023-01-24T03:38:13.383Z,77.97
2023-01-24T03:43:34.750Z,77.53
2023-01-24T03:48:55.852Z,77.62
2023-01-24T03:54:25.303Z,77.61
2023-01-24T03:59:52.157Z,77.74
2023-01-24T04:05:14.398Z,77.84
2023-01-24T04:10:37.435Z,77.56
2023-01-24T04:15:58.169Z,77.52
2023-01-24T04:21:39.011Z,77.92
2023-01-24T04:26:59.731Z,77.30
2023-01-24T04:32:26.509Z,77.67
2023-01-24T04:37:53.373Z,77.44
2023-01-24T04:43:29.260Z,77.85
2023-01-24T04:48:51.518Z,77.87
2023-01-24T04:54:12.866Z,77.38
2023-01-24T04:59:34.310Z,77.67
2023-01-24T05:04:55.157Z,77.76
2023-01-24T05:10:16.593Z,77.89
2023-01-24T05:15:50.548Z,78.12
2023-01-24T05:21:14.980Z,77.76
2023-01-24T05:26:37.313Z,77.99
2023-01-24T05:31:58.406Z,77.70
2023-01-24T05:37:19.039Z,77.52
2023-01-24T05:42:44.114Z,77.61
2023-01-24T05:48:06.202Z,78.02
2023-01-24T05:53:29.337Z,77.91
2023-01-24T05:58:50.452Z,77.91
2023-01-24T06:04:13.169Z,77.89
2023-01-24T06:09:34.425Z,78.32
2023-01-24T06:14:56.106Z,77.91
2023-01-24T06:20:17.343Z,78.18
2023-01-24T06:25:38.537Z,78.08
2023-01-24T06:31:06.057Z,78.58
2023-01-24T06:36:41.983Z,78.11
2023-01-24T06:42:03.110Z,77.82
2023-01-24T06:47:26.220Z,77.93
2023-01-24T06:52:49.010Z,77.69
2023-01-24T06:58:09.898Z,77.55
2023-01-24T07:03:30.555Z,77.59
2023-01-24T07:08:51.261Z,77.93
2023-01-24T07:14:11.886Z,77.76
2023-01-24T07:19:32.998Z,77.95
2023-01-24T07:24:54.503Z,78.17
2023-01-24T07:30:15.358Z,78.07
2023-01-24T07:35:36.032Z,78.09
2023-01-24T07:40:56.741Z,77.94
2023-01-24T07:46:17.509Z,77.80
2023-01-24T07:51:38.414Z,78.05
2023-01-24T07:56:59.032Z,77.86
2023-01-24T08:02:19.797Z,77.53
2023-01-24T08:07:40.543Z,78.27
2023-01-24T08:13:01.312Z,78.29
2023-01-24T08:18:21.926Z,77.85
2023-01-24T08:23:42.719Z,77.62
2023-01-24T08:29:03.908Z,78.27
2023-01-24T08:34:24.544Z,77.77
2023-01-24T08:39:45.261Z,77.84
2023-01-24T08:45:06.343Z,77.67
2023-01-24T08:50:28.187Z,78.25
2023-01-24T08:55:50.548Z,78.00
2023-01-24T09:01:12.065Z,77.67
2023-01-24T09:06:33.627Z,77.35
2023-01-24T09:11:54.403Z,77.28
2023-01-24T09:17:15.062Z,77.88
2023-01-24T09:22:36.219Z,77.70
2023-01-24T09:27:57.237Z,77.92
2023-01-24T09:33:19.180Z,77.23
2023-01-24T09:38:40.068Z,77.68
2023-01-24T09:44:04.145Z,77.62
2023-01-24T09:49:51.802Z,78.02
2023-01-24T09:55:38.319Z,77.85
2023-01-24T10:01:06.408Z,77.65
2023-01-24T10:06:30.434Z,78.13
2023-01-24T10:12:17.231Z,78.03
2023-01-24T10:17:53.147Z,78.20
2023-01-24T10:23:22.264Z,77.79
2023-01-24T10:28:52.734Z,77.70
2023-01-24T10:34:25.737Z,77.77
2023-01-24T10:39:46.725Z,77.36
2023-01-24T10:45:35.494Z,77.00
2023-01-24T10:51:17.441Z,77.47
2023-01-24T10:56:42.075Z,77.56
2023-01-24T11:02:03.288Z,77.66
2023-01-24T11:07:39.781Z,77.88
2023-01-24T11:13:02.661Z,77.62
2023-01-24T11:18:28.729Z,77.04
2023-01-24T11:24:08.228Z,77.42
2023-01-24T11:29:29.477Z,77.71
2023-01-24T11:34:50.470Z,77.42
2023-01-24T11:40:29.430Z,78.51
2023-01-24T11:46:12.147Z,77.18
2023-01-24T11:51:51.279Z,76.73
2023-01-24T11:57:24.532Z,77.16
2023-01-24T12:02:54.587Z,77.12
2023-01-24T12:08:34.129Z,76.75
2023-01-24T12:14:16.393Z,76.79
2023-01-24T12:19:46.176Z,77.01
2023-01-24T12:25:26.837Z,76.96
2023-01-24T12:30:54.928Z,76.90
2023-01-24T12:36:42.260Z,77.43
2023-01-24T12:42:22.922Z,76.88
2023-01-24T12:47:52.920Z,76.93
2023-01-24T12:53:27.660Z,76.91
2023-01-24T12:58:52.760Z,76.13
2023-01-24T13:04:24.588Z,77.34
2023-01-24T13:10:36.148Z,76.93
2023-01-24T13:16:14.910Z,76.53
2023-01-24T13:21:51.335Z,77.11
2023-01-24T13:27:16.917Z,76.96
2023-01-24T13:32:39.836Z,76.74
2023-01-24T13:38:16.733Z,76.70
2023-01-24T13:43:37.334Z,76.95
2023-01-24T13:48:58.675Z,76.88
2023-01-24T13:54:35.509Z,76.23
2023-01-24T14:00:15.667Z,76.28
2023-01-24T14:06:04.683Z,76.74
2023-01-24T14:11:36.589Z,76.37
2023-01-24T14:17:00.305Z,76.59
2023-01-24T14:22:28.354Z,76.83
2023-01-24T14:27:56.372Z,76.49
2023-01-24T14:33:28.037Z,76.57
2023-01-24T14:38:48.884Z,81.57
2023-01-24T14:44:23.163Z,77.15
2023-01-24T14:49:47.119Z,76.28
2023-01-24T14:55:43.402Z,76.40
2023-01-24T15:01:04.482Z,76.26
2023-01-24T15:06:28.159Z,75.98
2023-01-24T15:11:49.043Z,76.05
2023-01-24T15:17:25.582Z,76.05
2023-01-24T15:22:53.922Z,76.23
2023-01-24T15:28:30.253Z,76.30
2023-01-24T15:33:59.854Z,76.45
2023-01-24T15:39:20.982Z,75.91
2023-01-24T15:44:51.109Z,76.25
2023-01-24T15:50:59.305Z,76.64
2023-01-24T15:56:23.077Z,76.68
2023-01-24T16:01:44.331Z,76.32
2023-01-24T16:07:05.059Z,76.14
2023-01-24T16:12:35.502Z,75.98
2023-01-24T16:17:56.461Z,76.39
2023-01-24T16:23:17.235Z,76.40
2023-01-24T16:28:38.459Z,76.98
2023-01-24T16:33:59.334Z,76.42
2023-01-24T16:39:22.535Z,75.74
2023-01-24T16:44:43.987Z,75.72
2023-01-24T16:50:05.788Z,76.30
2023-01-24T16:55:26.791Z,76.70
2023-01-24T17:00:47.736Z,76.41
2023-01-24T17:06:09.755Z,76.20
2023-01-24T17:11:31.473Z,76.60
2023-01-24T17:16:52.313Z,75.47
2023-01-24T17:22:13.387Z,75.25
2023-01-24T17:27:34.380Z,75.80
2023-01-24T17:32:55.386Z,75.86
2023-01-24T17:38:17.348Z,75.38
2023-01-24T17:43:51.611Z,76.02
2023-01-24T17:49:13.448Z,75.56
2023-01-24T17:54:34.503Z,75.61
2023-01-24T17:59:55.287Z,76.24
2023-01-24T18:05:16.133Z,75.91
2023-01-24T18:10:38.206Z,75.92
2023-01-24T18:16:06.582Z,75.67
2023-01-24T18:21:27.670Z,75.64
2023-01-24T18:26:48.304Z,75.93
2023-01-24T18:32:09.063Z,75.78
2023-01-24T18:37:29.986Z,76.44
2023-01-24T18:42:50.798Z,75.83
2023-01-24T18:48:11.426Z,75.94
2023-01-24T18:53:32.359Z,76.52
2023-01-24T18:58:53.060Z,78.88
2023-01-24T19:04:13.852Z,76.15
2023-01-24T19:09:34.797Z,76.14
2023-01-24T19:14:55.668Z,75.92
2023-01-24T19:27:13.310Z,75.58
2023-01-24T19:32:37.246Z,75.74
2023-01-24T19:37:57.923Z,76.29
2023-01-24T19:43:18.902Z,76.70
2023-01-24T19:48:40.335Z,76.00
2023-01-24T19:54:01.037Z,75.47
2023-01-24T19:59:22.659Z,76.10
2023-01-24T20:04:52.018Z,76.22
2023-01-24T20:10:14.217Z,76.06
2023-01-24T20:15:34.933Z,76.35
2023-01-24T20:20:55.722Z,75.99
2023-01-24T20:26:16.719Z,75.86
2023-01-24T20:31:37.639Z,76.31
2023-01-24T20:36:58.537Z,76.64
2023-01-24T20:42:19.376Z,76.40
2023-01-24T20:47:40.543Z,76.06
2023-01-24T20:53:01.152Z,76.65
2023-01-24T20:58:22.648Z,76.75
2023-01-24T21:03:43.936Z,76.19
2023-01-24T21:09:05.483Z,76.12
2023-01-24T21:14:27.215Z,76.12
2023-01-24T21:19:48.457Z,76.42
2023-01-24T21:25:10.355Z,76.45
2023-01-24T21:30:32.062Z,76.31
2023-01-24T21:36:03.724Z,76.48
2023-01-24T21:41:42.930Z,76.38
2023-01-24T21:47:05.252Z,76.36
2023-01-24T21:52:25.838Z,76.13
2023-01-24T21:58:15.784Z,76.33
2023-01-24T22:03:36.712Z,76.36
2023-01-24T22:08:57.495Z,76.18
2023-01-24T22:14:24.328Z,76.79
2023-01-24T22:19:56.494Z,76.48
2023-01-24T22:25:44.185Z,77.12
2023-01-24T22:31:05.376Z,76.97
2023-01-24T22:36:26.386Z,77.18
2023-01-24T22:41:47.013Z,76.38
2023-01-24T22:47:07.696Z,76.56
2023-01-24T22:52:28.410Z,76.43
2023-01-24T22:57:49.202Z,76.43
2023-01-24T23:03:09.687Z,76.12
2023-01-24T23:08:30.322Z,76.44
2023-01-24T23:14:10.067Z,75.83
2023-01-24T23:19:52.505Z,76.41
2023-01-24T23:25:13.418Z,76.32
2023-01-24T23:30:54.296Z,76.32
2023-01-24T23:36:15.035Z,75.88
2023-01-24T23:41:35.682Z,76.44
2023-01-24T23:46:56.380Z,76.20
2023-01-24T23:52:18.101Z,76.60
2023-01-24T23:57:38.752Z,76.80
